createdAt,value
2023-03-26T00:00:11.993Z,7.01
2023-03-26T00:01:37.712Z,7.01
2023-03-26T00:02:41.069Z,7.01
2023-03-26T00:03:53.569Z,7.02
2023-03-26T00:04:56.478Z,7.04
2023-03-26T00:06:12.855Z,7.03
2023-03-26T00:07:16.102Z,7.03
2023-03-26T00:08:18.936Z,7.03
2023-03-26T00:09:21.915Z,7.03
2023-03-26T00:10:25.532Z,7.02
2023-03-26T00:11:29.620Z,7.03
2023-03-26T00:12:32.504Z,7.03
2023-03-26T00:13:35.799Z,7.03
2023-03-26T00:14:40.862Z,7.04
2023-03-26T00:15:43.610Z,7.04
2023-03-26T00:16:47.453Z,7.04
2023-03-26T00:17:51.702Z,7.05
2023-03-26T00:18:55.357Z,7.06
2023-03-26T00:19:59.677Z,7.06
2023-03-26T00:21:05.453Z,7.07
2023-03-26T00:22:11.227Z,7.08
2023-03-26T00:23:14.439Z,7.08
2023-03-26T00:24:17.438Z,7.09
2023-03-26T00:25:21.457Z,7.10
2023-03-26T00:26:24.599Z,7.11
2023-03-26T00:27:27.789Z,7.12
2023-03-26T00:28:30.854Z,7.13
2023-03-26T00:29:35.719Z,7.13
2023-03-26T00:30:41.810Z,7.13
2023-03-26T00:31:46.592Z,7.14
2023-03-26T00:32:53.652Z,7.14
2023-03-26T00:33:57.884Z,7.14
2023-03-26T00:35:01.931Z,7.15
2023-03-26T00:36:14.742Z,7.16
2023-03-26T00:37:18.393Z,7.17
2023-03-26T00:38:22.615Z,7.17
2023-03-26T00:39:25.461Z,7.16
2023-03-26T00:40:29.893Z,7.17
2023-03-26T00:41:37.177Z,7.17
2023-03-26T00:42:40.401Z,7.17
2023-03-26T00:43:46.732Z,7.18
2023-03-26T00:44:54.991Z,7.18
2023-03-26T00:45:58.044Z,7.18
2023-03-26T00:47:01.539Z,7.17
2023-03-26T00:48:04.976Z,7.17
2023-03-26T00:49:11.199Z,7.17
2023-03-26T00:50:16.301Z,7.16
2023-03-26T00:51:20.829Z,7.16
2023-03-26T00:52:23.944Z,7.16
2023-03-26T00:53:27.001Z,7.15
2023-03-26T00:54:29.914Z,7.15
2023-03-26T00:55:32.800Z,7.14
2023-03-26T00:56:35.900Z,7.13
2023-03-26T00:57:40.318Z,7.12
2023-03-26T00:58:43.797Z,7.13
2023-03-26T00:59:46.724Z,7.12
2023-03-26T01:00:52.448Z,7.12
2023-03-26T01:01:58.495Z,7.11
2023-03-26T01:03:04.352Z,7.11
2023-03-26T01:04:28.194Z,7.10
2023-03-26T01:05:35.060Z,7.10
2023-03-26T01:06:42.363Z,7.10
2023-03-26T01:07:46.217Z,7.10
2023-03-26T01:08:51.130Z,7.11
2023-03-26T01:09:55.299Z,7.12
2023-03-26T01:11:03.124Z,7.12
2023-03-26T01:12:08.724Z,7.13
2023-03-26T01:13:12.901Z,7.14
2023-03-26T01:14:23.608Z,7.14
2023-03-26T01:15:30.145Z,7.15
2023-03-26T01:16:46.615Z,7.17
2023-03-26T01:17:52.106Z,7.17
2023-03-26T01:18:58.796Z,7.17
2023-03-26T01:20:15.139Z,7.18
2023-03-26T01:21:30.515Z,7.18
2023-03-26T01:22:36.650Z,7.18
2023-03-26T01:23:49.111Z,7.18
2023-03-26T01:24:56.637Z,7.19
2023-03-26T01:26:17.595Z,7.20
2023-03-26T01:27:24.685Z,7.20
2023-03-26T01:28:32.353Z,7.18
2023-03-26T01:29:44.675Z,7.18
2023-03-26T01:33:14.116Z,7.17
2023-03-26T01:34:37.364Z,7.17
2023-03-26T01:35:52.899Z,7.16
2023-03-26T01:37:18.795Z,7.15
2023-03-26T01:38:32.832Z,7.15
2023-03-26T01:39:49.597Z,7.15
2023-03-26T01:41:08.308Z,7.15
2023-03-26T01:42:35.392Z,7.15
2023-03-26T01:43:55.399Z,7.15
2023-03-26T01:45:09.437Z,7.15
2023-03-26T01:46:15.466Z,7.14
2023-03-26T01:47:19.388Z,7.14
2023-03-26T01:48:30.681Z,7.13
2023-03-26T01:49:33.750Z,7.12
2023-03-26T01:50:36.764Z,7.12
2023-03-26T01:51:42.100Z,7.12
2023-03-26T01:52:45.122Z,7.11
2023-03-26T01:53:48.398Z,7.11
2023-03-26T01:54:52.487Z,7.10
2023-03-26T01:56:27.017Z,7.10
2023-03-26T01:57:32.457Z,7.08
2023-03-26T01:58:48.593Z,7.08
2023-03-26T02:00:40.115Z,7.07
2023-03-26T02:02:01.398Z,7.04
2023-03-26T02:03:27.966Z,7.03
2023-03-26T02:04:39.766Z,7.01
2023-03-26T02:05:57.979Z,6.98
2023-03-26T02:07:06.193Z,6.97
2023-03-26T02:08:35.777Z,6.96
2023-03-26T02:09:45.913Z,6.93
2023-03-26T02:10:55.484Z,6.92
2023-03-26T02:11:59.608Z,6.90
2023-03-26T02:13:03.277Z,6.89
2023-03-26T02:14:08.380Z,6.89
2023-03-26T02:15:12.321Z,6.89
2023-03-26T02:16:20.233Z,6.89
2023-03-26T02:17:24.509Z,6.89
2023-03-26T02:18:39.020Z,6.88
2023-03-26T02:19:42.379Z,6.88
2023-03-26T02:20:45.385Z,6.88
2023-03-26T02:21:52.535Z,6.88
2023-03-26T02:22:57.785Z,6.88
2023-03-26T02:24:04.518Z,6.89
2023-03-26T02:25:12.308Z,6.89
2023-03-26T02:26:18.208Z,6.88
2023-03-26T02:27:31.840Z,6.88
2023-03-26T02:28:34.889Z,6.87
2023-03-26T02:29:40.439Z,6.87
2023-03-26T02:30:46.010Z,6.88
2023-03-26T02:31:51.426Z,6.89
2023-03-26T02:32:54.659Z,6.89
2023-03-26T02:33:58.853Z,6.91
2023-03-26T02:35:05.473Z,6.91
2023-03-26T02:36:10.759Z,6.92
2023-03-26T02:37:14.095Z,6.92
2023-03-26T02:38:19.628Z,6.93
2023-03-26T02:39:23.464Z,6.93
2023-03-26T02:40:32.980Z,6.93
2023-03-26T02:41:37.431Z,6.91
2023-03-26T02:42:47.547Z,6.91
2023-03-26T02:43:50.590Z,6.91
2023-03-26T02:44:55.430Z,6.91
2023-03-26T02:46:17.298Z,6.92
2023-03-26T02:47:31.403Z,6.91
2023-03-26T02:48:54.723Z,6.91
2023-03-26T02:50:03.802Z,6.92
2023-03-26T02:51:27.577Z,6.93
2023-03-26T02:52:54.228Z,6.94
2023-03-26T02:53:57.112Z,6.94
2023-03-26T02:55:21.126Z,6.95
2023-03-26T02:56:25.527Z,6.95
2023-03-26T02:57:55.373Z,6.95
2023-03-26T02:59:04.879Z,6.95
2023-03-26T03:00:14.417Z,6.95
2023-03-26T03:01:38.378Z,6.96
2023-03-26T03:02:41.476Z,6.96
2023-03-26T03:04:13.712Z,6.95
2023-03-26T03:05:18.526Z,6.95
2023-03-26T03:06:22.622Z,6.96
2023-03-26T03:07:29.643Z,6.97
2023-03-26T03:08:34.094Z,6.98
2023-03-26T03:09:54.877Z,6.98
2023-03-26T03:11:22.232Z,6.98
2023-03-26T03:12:26.180Z,6.99
2023-03-26T03:13:29.995Z,6.98
2023-03-26T03:14:32.968Z,6.98
2023-03-26T03:15:36.106Z,6.99
2023-03-26T03:16:39.005Z,6.99
2023-03-26T03:17:44.534Z,7.00
2023-03-26T03:18:54.655Z,7.01
2023-03-26T03:19:58.278Z,7.02
2023-03-26T03:21:02.919Z,7.02
2023-03-26T03:22:06.394Z,7.03
2023-03-26T03:23:09.945Z,7.03
2023-03-26T03:24:13.984Z,7.03
2023-03-26T03:25:22.259Z,7.03
2023-03-26T03:26:30.049Z,7.04
2023-03-26T03:27:39.337Z,7.04
2023-03-26T03:28:48.261Z,7.05
2023-03-26T03:29:55.975Z,7.04
2023-03-26T03:31:31.206Z,7.04
2023-03-26T03:32:38.660Z,7.04
2023-03-26T03:33:43.108Z,7.06
2023-03-26T03:34:46.488Z,7.07
2023-03-26T03:35:50.631Z,7.08
2023-03-26T03:36:53.904Z,7.09
2023-03-26T03:38:19.849Z,7.10
2023-03-26T03:39:24.697Z,7.09
2023-03-26T03:40:27.750Z,7.10
2023-03-26T03:41:31.309Z,7.11
2023-03-26T03:42:34.996Z,7.12
2023-03-26T03:43:39.077Z,7.13
2023-03-26T03:44:47.601Z,7.13
2023-03-26T03:46:09.311Z,7.14
2023-03-26T03:47:23.961Z,7.15
2023-03-26T03:48:28.042Z,7.17
2023-03-26T03:49:31.045Z,7.18
2023-03-26T03:50:35.808Z,7.19
2023-03-26T03:51:53.209Z,7.19
2023-03-26T03:53:03.024Z,7.20
2023-03-26T03:54:05.964Z,7.20
2023-03-26T03:55:27.760Z,7.21
2023-03-26T03:56:30.879Z,7.21
2023-03-26T03:57:52.653Z,7.21
2023-03-26T03:58:59.609Z,7.21
2023-03-26T04:00:11.809Z,7.22
2023-03-26T04:01:23.605Z,7.23
2023-03-26T04:02:36.251Z,7.25
2023-03-26T04:03:40.861Z,7.26
2023-03-26T04:04:50.404Z,7.27
2023-03-26T04:05:57.128Z,7.28
2023-03-26T04:07:01.168Z,7.29
2023-03-26T04:08:12.274Z,7.30
2023-03-26T04:09:21.456Z,7.30
2023-03-26T04:10:24.501Z,7.32
2023-03-26T04:11:39.583Z,7.33
2023-03-26T04:12:53.941Z,7.34
2023-03-26T04:14:07.236Z,7.35
2023-03-26T04:15:32.031Z,7.34
2023-03-26T04:16:35.278Z,7.34
2023-03-26T04:17:42.674Z,7.34
2023-03-26T04:18:46.422Z,7.36
2023-03-26T04:19:53.163Z,7.37
2023-03-26T04:20:56.675Z,7.38
2023-03-26T04:22:03.104Z,7.40
2023-03-26T04:23:14.232Z,7.42
2023-03-26T04:24:17.147Z,7.42
2023-03-26T04:25:39.415Z,7.42
2023-03-26T04:26:51.681Z,7.43
2023-03-26T04:28:08.588Z,7.43
2023-03-26T04:29:42.924Z,7.44
2023-03-26T04:30:53.794Z,7.45
2023-03-26T04:32:30.472Z,7.47
2023-03-26T04:33:35.101Z,7.49
2023-03-26T04:34:38.812Z,7.50
2023-03-26T04:35:45.504Z,7.52
2023-03-26T04:36:49.228Z,7.54
2023-03-26T04:37:52.957Z,7.55
2023-03-26T04:39:05.114Z,7.55
2023-03-26T04:40:30.553Z,7.55
2023-03-26T04:41:43.425Z,7.54
2023-03-26T04:42:54.849Z,7.53
2023-03-26T04:44:22.522Z,7.53
2023-03-26T04:45:31.232Z,7.52
2023-03-26T04:46:35.193Z,7.53
2023-03-26T04:48:04.295Z,7.53
2023-03-26T04:49:07.358Z,7.52
2023-03-26T04:50:11.333Z,7.54
2023-03-26T04:51:18.293Z,7.56
2023-03-26T04:52:21.538Z,7.58
2023-03-26T04:53:34.541Z,7.61
2023-03-26T04:55:00.096Z,7.63
2023-03-26T04:56:19.611Z,7.65
2023-03-26T04:57:52.015Z,7.68
2023-03-26T04:59:20.161Z,7.71
2023-03-26T05:00:24.858Z,7.73
2023-03-26T05:01:30.817Z,7.72
2023-03-26T05:02:34.201Z,7.70
2023-03-26T05:03:40.681Z,7.71
2023-03-26T05:04:47.729Z,7.73
2023-03-26T05:05:51.653Z,7.73
2023-03-26T05:06:55.222Z,7.75
2023-03-26T05:08:02.712Z,7.77
2023-03-26T05:09:05.746Z,7.78
2023-03-26T05:10:28.635Z,7.78
2023-03-26T05:11:40.242Z,7.79
2023-03-26T05:12:43.466Z,7.80
2023-03-26T05:13:51.152Z,7.80
2023-03-26T05:14:54.743Z,7.81
2023-03-26T05:16:16.667Z,7.79
2023-03-26T05:17:41.658Z,7.77
2023-03-26T05:18:51.651Z,7.77
2023-03-26T05:19:54.795Z,7.76
2023-03-26T05:20:58.424Z,7.75
2023-03-26T05:22:02.536Z,7.74
2023-03-26T05:23:08.018Z,7.75
2023-03-26T05:24:17.019Z,7.76
2023-03-26T05:25:20.756Z,7.79
2023-03-26T05:26:24.127Z,7.81
2023-03-26T05:27:26.966Z,7.84
2023-03-26T05:28:30.856Z,7.86
2023-03-26T05:29:40.989Z,7.87
2023-03-26T05:30:44.590Z,7.86
2023-03-26T05:31:48.717Z,7.86
2023-03-26T05:32:52.287Z,7.89
2023-03-26T05:34:00.484Z,7.92
2023-03-26T05:35:04.464Z,7.96
2023-03-26T05:36:13.373Z,7.96
2023-03-26T05:37:19.995Z,7.94
2023-03-26T05:38:32.839Z,7.92
2023-03-26T05:39:36.183Z,7.91
2023-03-26T05:41:02.611Z,7.92
2023-03-26T05:42:07.958Z,7.94
2023-03-26T05:43:22.073Z,7.95
2023-03-26T05:44:43.361Z,7.97
2023-03-26T05:45:53.048Z,7.97
2023-03-26T05:47:02.663Z,7.98
2023-03-26T05:48:06.134Z,7.99
2023-03-26T05:49:09.035Z,8.00
2023-03-26T05:50:12.117Z,8.00
2023-03-26T05:51:16.960Z,8.01
2023-03-26T05:52:26.837Z,8.02
2023-03-26T05:53:48.351Z,8.02
2023-03-26T05:55:27.827Z,8.03
2023-03-26T05:56:49.407Z,8.05
2023-03-26T05:58:12.260Z,8.04
2023-03-26T05:59:27.128Z,8.01
2023-03-26T06:00:48.916Z,7.99
2023-03-26T06:01:54.615Z,7.99
2023-03-26T06:03:12.981Z,7.97
2023-03-26T06:04:34.675Z,7.97
2023-03-26T06:05:59.432Z,7.99
2023-03-26T06:07:14.066Z,7.99
2023-03-26T06:08:21.969Z,8.01
2023-03-26T06:09:27.077Z,8.00
2023-03-26T06:10:30.454Z,8.00
2023-03-26T06:11:33.802Z,8.00
2023-03-26T06:12:38.833Z,8.01
2023-03-26T06:13:42.644Z,8.02
2023-03-26T06:14:47.157Z,8.03
2023-03-26T06:15:58.474Z,8.03
2023-03-26T06:17:06.239Z,8.04
2023-03-26T06:18:29.098Z,8.06
2023-03-26T06:19:51.084Z,8.08
2023-03-26T06:21:01.275Z,8.08
2023-03-26T06:22:24.611Z,8.10
2023-03-26T06:23:53.996Z,8.13
2023-03-26T06:25:16.205Z,8.17
2023-03-26T06:26:43.461Z,8.21
2023-03-26T06:28:01.846Z,8.26
2023-03-26T06:29:37.118Z,8.26
2023-03-26T06:30:54.913Z,8.27
2023-03-26T06:32:19.152Z,8.28
2023-03-26T06:33:34.198Z,8.27
2023-03-26T06:34:37.218Z,8.29
2023-03-26T06:35:40.489Z,8.32
2023-03-26T06:36:43.424Z,8.35
2023-03-26T06:37:46.586Z,8.39
2023-03-26T06:38:49.468Z,8.40
2023-03-26T06:39:52.557Z,8.42
2023-03-26T06:41:04.820Z,8.40
2023-03-26T06:42:19.774Z,8.39
2023-03-26T06:43:45.576Z,8.40
2023-03-26T06:45:09.047Z,8.42
2023-03-26T06:47:02.031Z,8.42
2023-03-26T06:48:23.430Z,8.46
2023-03-26T06:49:49.676Z,8.46
2023-03-26T06:51:13.041Z,8.46
2023-03-26T06:52:34.619Z,8.48
2023-03-26T06:53:45.695Z,8.51
2023-03-26T06:55:10.264Z,8.54
2023-03-26T06:56:33.639Z,8.59
2023-03-26T06:57:58.324Z,8.63
2023-03-26T06:59:16.566Z,8.65
2023-03-26T07:00:48.977Z,8.63
2023-03-26T07:02:11.816Z,8.61
2023-03-26T07:03:33.675Z,8.59
2023-03-26T07:04:56.214Z,8.57
2023-03-26T07:06:18.069Z,8.55
2023-03-26T07:07:45.846Z,8.53
2023-03-26T07:09:12.747Z,8.51
2023-03-26T07:10:45.590Z,8.51
2023-03-26T07:11:59.856Z,8.52
2023-03-26T07:13:21.995Z,8.51
2023-03-26T07:14:47.908Z,8.52
2023-03-26T07:16:11.483Z,8.53
2023-03-26T07:17:32.912Z,8.53
2023-03-26T07:18:51.216Z,8.54
2023-03-26T07:19:58.237Z,8.55
2023-03-26T07:21:02.749Z,8.55
2023-03-26T07:22:07.726Z,8.53
2023-03-26T07:23:30.971Z,8.55
2023-03-26T07:24:44.264Z,8.57
2023-03-26T07:26:28.752Z,8.57
2023-03-26T07:28:06.557Z,8.59
2023-03-26T07:29:48.801Z,8.59
2023-03-26T07:31:12.301Z,8.61
2023-03-26T07:32:39.653Z,8.65
2023-03-26T07:34:26.627Z,8.70
2023-03-26T07:35:59.947Z,8.75
2023-03-26T07:37:30.182Z,8.81
2023-03-26T07:39:07.931Z,8.85
2023-03-26T07:40:40.460Z,8.91
2023-03-26T07:42:09.441Z,8.97
2023-03-26T07:44:00.163Z,8.98
2023-03-26T07:45:47.482Z,8.98
2023-03-26T07:47:18.306Z,9.01
2023-03-26T07:48:43.621Z,9.04
2023-03-26T07:49:53.743Z,9.08
2023-03-26T07:51:15.849Z,9.13
2023-03-26T07:52:58.205Z,9.15
2023-03-26T07:54:24.586Z,9.15
2023-03-26T07:56:07.822Z,9.17
2023-03-26T07:57:58.785Z,9.21
2023-03-26T07:59:45.628Z,9.18
2023-03-26T08:01:43.019Z,9.20
2023-03-26T08:03:03.660Z,9.23
2023-03-26T08:05:32.181Z,9.25
2023-03-26T08:07:03.729Z,9.22
2023-03-26T08:09:00.114Z,9.20
2023-03-26T08:10:29.724Z,9.15
2023-03-26T08:11:50.637Z,9.11
2023-03-26T08:13:06.702Z,9.11
2023-03-26T08:14:28.604Z,9.13
2023-03-26T08:15:38.072Z,9.11
2023-03-26T08:17:04.892Z,9.11
2023-03-26T08:18:30.476Z,9.14
2023-03-26T08:19:41.356Z,9.19
2023-03-26T08:20:54.425Z,9.24
2023-03-26T08:22:13.174Z,9.26
2023-03-26T08:23:50.400Z,9.27
2023-03-26T08:25:28.355Z,9.28
2023-03-26T08:26:45.506Z,9.29
2023-03-26T08:28:30.178Z,9.30
2023-03-26T08:29:51.880Z,9.34
2023-03-26T08:30:55.305Z,9.34
2023-03-26T08:32:01.813Z,9.37
2023-03-26T08:33:16.767Z,9.41
2023-03-26T08:34:20.033Z,9.45
2023-03-26T08:35:24.702Z,9.49
2023-03-26T08:36:27.879Z,9.52
2023-03-26T08:37:31.174Z,9.56
2023-03-26T08:38:34.347Z,9.60
2023-03-26T08:39:39.561Z,9.61
2023-03-26T08:41:17.086Z,9.65
2023-03-26T08:42:20.370Z,9.73
2023-03-26T08:44:17.456Z,9.78
2023-03-26T08:45:44.854Z,9.87
2023-03-26T08:47:12.673Z,9.92
2023-03-26T08:48:43.984Z,9.96
2023-03-26T08:50:09.265Z,9.99
2023-03-26T08:51:22.070Z,9.99
2023-03-26T08:52:50.922Z,9.99
2023-03-26T08:53:56.499Z,9.99
2023-03-26T08:55:08.694Z,10.00
2023-03-26T08:56:30.318Z,10.02
2023-03-26T08:57:57.095Z,10.03
2023-03-26T08:59:42.959Z,10.03
2023-03-26T09:01:01.485Z,10.00
2023-03-26T09:02:46.873Z,9.97
2023-03-26T09:04:29.779Z,9.93
2023-03-26T09:05:54.822Z,9.91
2023-03-26T09:07:07.769Z,9.90
2023-03-26T09:08:25.904Z,9.87
2023-03-26T09:09:47.573Z,9.85
2023-03-26T09:11:09.554Z,9.85
2023-03-26T09:12:15.797Z,9.84
2023-03-26T09:13:18.624Z,9.84
2023-03-26T09:14:51.037Z,9.85
2023-03-26T09:16:45.338Z,9.89
2023-03-26T09:18:22.297Z,9.93
2023-03-26T09:19:54.109Z,9.97
2023-03-26T09:21:46.129Z,9.98
2023-03-26T09:23:26.929Z,10.05
2023-03-26T09:24:54.651Z,10.11
2023-03-26T09:26:17.290Z,10.12
2023-03-26T09:27:36.674Z,10.14
2023-03-26T09:29:21.519Z,10.18
2023-03-26T09:30:47.275Z,10.25
2023-03-26T09:32:11.721Z,10.31
2023-03-26T09:33:20.871Z,10.35
2023-03-26T09:34:45.716Z,10.41
2023-03-26T09:36:09.536Z,10.50
2023-03-26T09:37:57.586Z,10.56
2023-03-26T09:39:16.529Z,10.57
2023-03-26T09:40:24.650Z,10.53
2023-03-26T09:41:43.142Z,10.53
2023-03-26T09:42:53.986Z,10.52
2023-03-26T09:44:24.729Z,10.51
2023-03-26T09:45:46.322Z,10.53
2023-03-26T09:47:01.189Z,10.53
2023-03-26T09:48:20.110Z,10.56
2023-03-26T09:50:00.618Z,10.64
2023-03-26T09:51:22.393Z,10.69
2023-03-26T09:53:03.009Z,10.65
2023-03-26T09:54:13.967Z,10.60
2023-03-26T09:55:45.253Z,10.56
2023-03-26T09:57:04.965Z,10.51
2023-03-26T09:58:19.951Z,10.50
2023-03-26T09:59:58.097Z,10.50
2023-03-26T10:01:25.862Z,10.49
2023-03-26T10:02:48.142Z,10.43
2023-03-26T10:04:15.732Z,10.39
2023-03-26T10:05:42.616Z,10.40
2023-03-26T10:07:12.441Z,10.37
2023-03-26T10:08:47.626Z,10.32
2023-03-26T10:10:15.477Z,10.31
2023-03-26T10:11:37.851Z,10.29
2023-03-26T10:12:51.094Z,10.25
2023-03-26T10:13:59.582Z,10.23
2023-03-26T10:15:23.995Z,10.18
2023-03-26T10:16:59.676Z,10.11
2023-03-26T10:18:37.269Z,10.05
2023-03-26T10:20:04.563Z,9.96
2023-03-26T10:21:32.337Z,9.88
2023-03-26T10:22:59.250Z,9.80
2023-03-26T10:25:01.452Z,9.74
2023-03-26T10:26:22.463Z,9.68
2023-03-26T10:27:44.333Z,9.67
2023-03-26T10:29:16.226Z,9.68
2023-03-26T10:30:35.367Z,9.67
2023-03-26T10:32:01.497Z,9.64
2023-03-26T10:33:19.574Z,9.63
2023-03-26T10:34:54.538Z,9.64
2023-03-26T10:36:29.433Z,9.65
2023-03-26T10:38:04.387Z,9.73
2023-03-26T10:39:38.934Z,9.82
2023-03-26T10:40:55.417Z,9.92
2023-03-26T10:42:26.638Z,9.99
2023-03-26T10:44:15.816Z,10.06
2023-03-26T10:45:53.182Z,10.10
2023-03-26T10:47:35.439Z,10.18
2023-03-26T10:48:47.721Z,10.27
2023-03-26T10:50:22.680Z,10.33
2023-03-26T10:51:51.531Z,10.35
2023-03-26T10:53:20.704Z,10.32
2023-03-26T10:54:36.261Z,10.40
2023-03-26T10:55:46.945Z,10.49
2023-03-26T10:56:52.410Z,10.61
2023-03-26T10:58:13.379Z,10.73
2023-03-26T10:59:19.138Z,10.86
2023-03-26T11:00:29.260Z,10.94
2023-03-26T11:01:42.173Z,10.99
2023-03-26T11:03:00.844Z,11.03
2023-03-26T11:04:42.704Z,11.06
2023-03-26T11:05:48.648Z,11.08
2023-03-26T11:07:09.047Z,11.06
2023-03-26T11:08:21.345Z,11.03
2023-03-26T11:09:51.563Z,11.02
2023-03-26T11:10:55.898Z,11.01
2023-03-26T11:12:27.034Z,10.97
2023-03-26T11:13:54.010Z,10.87
2023-03-26T11:15:17.944Z,10.80
2023-03-26T11:16:36.397Z,10.76
2023-03-26T11:17:51.659Z,10.73
2023-03-26T11:19:05.163Z,10.68
2023-03-26T11:20:11.499Z,10.65
2023-03-26T11:21:29.354Z,10.60
2023-03-26T11:23:04.911Z,10.57
2023-03-26T11:24:42.191Z,10.49
2023-03-26T11:26:02.176Z,10.42
2023-03-26T11:27:15.702Z,10.38
2023-03-26T11:28:28.577Z,10.35
2023-03-26T11:29:49.372Z,10.31
2023-03-26T11:31:08.716Z,10.29
2023-03-26T11:32:15.581Z,10.29
2023-03-26T11:33:45.707Z,10.29
2023-03-26T11:35:08.212Z,10.30
2023-03-26T11:36:16.682Z,10.32
2023-03-26T11:37:46.481Z,10.38
2023-03-26T11:38:57.904Z,10.46
2023-03-26T11:40:14.789Z,10.54
2023-03-26T11:41:24.138Z,10.61
2023-03-26T11:42:30.498Z,10.64
2023-03-26T11:43:36.846Z,10.71
2023-03-26T11:45:05.250Z,10.82
2023-03-26T11:46:14.234Z,10.99
2023-03-26T11:47:23.486Z,11.12
2023-03-26T11:48:33.106Z,11.31
2023-03-26T11:49:37.321Z,11.53
2023-03-26T11:50:46.509Z,11.76
2023-03-26T11:51:49.713Z,12.00
2023-03-26T11:52:57.373Z,12.23
2023-03-26T11:54:04.942Z,12.41
2023-03-26T11:55:12.665Z,12.44
2023-03-26T11:56:32.691Z,12.48
2023-03-26T11:57:38.386Z,12.65
2023-03-26T11:59:13.425Z,12.79
2023-03-26T12:00:21.112Z,13.07
2023-03-26T12:01:58.550Z,13.27
2023-03-26T12:03:01.625Z,13.36
2023-03-26T12:04:14.585Z,13.34
2023-03-26T12:05:26.431Z,13.29
2023-03-26T12:06:29.674Z,13.18
2023-03-26T12:07:34.409Z,13.06
2023-03-26T12:08:42.252Z,12.94
2023-03-26T12:09:51.167Z,12.80
2023-03-26T12:11:04.472Z,12.67
2023-03-26T12:12:07.446Z,12.51
2023-03-26T12:13:36.966Z,12.37
2023-03-26T12:14:42.900Z,12.25
2023-03-26T12:15:45.864Z,12.24
2023-03-26T12:17:01.281Z,12.32
2023-03-26T12:18:28.463Z,12.48
2023-03-26T12:19:39.542Z,12.54
2023-03-26T12:20:42.731Z,12.47
2023-03-26T12:21:51.321Z,12.41
2023-03-26T12:22:59.514Z,12.35
2023-03-26T12:24:06.227Z,12.31
2023-03-26T12:25:17.698Z,12.29
2023-03-26T12:26:35.084Z,12.26
2023-03-26T12:27:38.014Z,12.23
2023-03-26T12:28:46.052Z,12.26
2023-03-26T12:29:55.086Z,12.31
2023-03-26T12:31:02.887Z,12.33
2023-03-26T12:32:15.412Z,12.32
2023-03-26T12:33:30.246Z,12.27
2023-03-26T12:34:36.794Z,12.26
2023-03-26T12:35:40.881Z,12.27
2023-03-26T12:36:53.523Z,12.39
2023-03-26T12:38:13.388Z,12.69
2023-03-26T12:40:09.299Z,13.11
2023-03-26T12:41:08.001Z,13.52
2023-03-26T12:44:51.385Z,13.80
2023-03-26T12:44:52.618Z,13.85
2023-03-26T12:45:44.473Z,13.65
2023-03-26T12:48:00.391Z,13.46
2023-03-26T12:48:18.608Z,13.20
2023-03-26T12:49:22.730Z,13.05
2023-03-26T12:50:36.410Z,12.90
2023-03-26T12:51:49.623Z,12.66
2023-03-26T12:53:19.237Z,12.47
2023-03-26T12:55:00.358Z,12.21
2023-03-26T12:56:06.045Z,11.97
2023-03-26T12:57:25.268Z,11.82
2023-03-26T12:58:54.962Z,11.66
2023-03-26T13:00:25.446Z,11.60
2023-03-26T13:01:40.778Z,11.50
2023-03-26T13:02:53.091Z,11.41
2023-03-26T13:04:18.401Z,11.33
2023-03-26T13:06:03.336Z,11.30
2023-03-26T13:07:47.231Z,11.34
2023-03-26T13:08:52.748Z,11.51
2023-03-26T13:10:22.862Z,11.62
2023-03-26T13:11:55.562Z,11.68
2023-03-26T13:13:23.457Z,11.72
2023-03-26T13:15:00.921Z,11.71
2023-03-26T13:16:09.376Z,11.59
2023-03-26T13:17:30.037Z,11.48
2023-03-26T13:18:51.951Z,11.37
2023-03-26T13:20:29.868Z,11.19
2023-03-26T13:21:55.187Z,11.02
2023-03-26T13:23:20.967Z,10.89
2023-03-26T13:24:32.992Z,10.80
2023-03-26T13:26:00.557Z,10.89
2023-03-26T13:27:28.377Z,11.40
2023-03-26T13:28:33.262Z,12.02
2023-03-26T13:30:13.341Z,12.38
2023-03-26T13:31:27.887Z,12.56
2023-03-26T13:32:34.009Z,12.92
2023-03-26T13:34:16.219Z,13.30
2023-03-26T13:35:45.883Z,13.60
2023-03-26T13:36:51.879Z,14.11
2023-03-26T13:38:11.699Z,14.16
2023-03-26T13:39:21.220Z,14.07
2023-03-26T13:40:33.665Z,13.92
2023-03-26T13:41:59.631Z,13.71
2023-03-26T13:43:36.869Z,13.43
2023-03-26T13:45:05.506Z,12.98
2023-03-26T13:46:18.391Z,12.76
2023-03-26T13:47:29.132Z,12.63
2023-03-26T13:48:43.382Z,12.50
2023-03-26T13:50:01.966Z,12.39
2023-03-26T13:51:42.244Z,12.30
2023-03-26T13:52:52.258Z,12.14
2023-03-26T13:53:55.221Z,12.01
2023-03-26T13:55:04.428Z,11.90
2023-03-26T13:56:13.668Z,11.78
2023-03-26T13:57:41.635Z,11.66
2023-03-26T13:58:50.627Z,11.51
2023-03-26T13:59:59.172Z,11.41
2023-03-26T14:01:17.056Z,11.32
2023-03-26T14:02:47.891Z,11.42
2023-03-26T14:04:01.038Z,11.76
2023-03-26T14:05:21.252Z,11.90
2023-03-26T14:06:47.411Z,12.05
2023-03-26T14:08:22.853Z,12.51
2023-03-26T14:09:42.616Z,12.96
2023-03-26T14:10:56.804Z,13.34
2023-03-26T14:12:24.827Z,13.56
2023-03-26T14:13:43.637Z,13.62
2023-03-26T14:14:53.139Z,13.94
2023-03-26T14:16:11.811Z,14.16
2023-03-26T14:17:20.759Z,14.64
2023-03-26T14:18:38.263Z,15.00
2023-03-26T14:20:10.312Z,15.29
2023-03-26T14:21:42.778Z,15.60
2023-03-26T14:23:22.021Z,15.99
2023-03-26T14:24:44.194Z,16.36
2023-03-26T14:25:56.194Z,16.49
2023-03-26T14:27:37.411Z,16.53
2023-03-26T14:29:56.365Z,16.30
2023-03-26T14:31:19.556Z,16.63
2023-03-26T14:32:49.366Z,16.88
2023-03-26T14:34:34.524Z,16.80
2023-03-26T14:36:14.460Z,16.36
2023-03-26T14:37:33.163Z,15.90
2023-03-26T14:39:13.619Z,15.56
2023-03-26T14:40:39.703Z,15.17
2023-03-26T14:41:53.318Z,14.90
2023-03-26T14:43:23.306Z,14.67
2023-03-26T14:45:07.398Z,14.33
2023-03-26T14:46:21.563Z,14.00
2023-03-26T14:47:25.139Z,13.80
2023-03-26T14:48:37.173Z,13.65
2023-03-26T14:50:22.623Z,13.49
2023-03-26T14:51:47.751Z,13.17
2023-03-26T14:52:52.941Z,12.97
2023-03-26T14:54:19.192Z,12.81
2023-03-26T14:55:48.629Z,12.65
2023-03-26T14:57:00.984Z,12.44
2023-03-26T14:58:47.816Z,12.28
2023-03-26T14:59:51.109Z,12.07
2023-03-26T15:01:19.220Z,11.97
2023-03-26T15:02:22.294Z,11.86
2023-03-26T15:03:51.174Z,11.76
2023-03-26T15:04:53.970Z,11.60
2023-03-26T15:06:18.193Z,11.46
2023-03-26T15:07:45.849Z,11.30
2023-03-26T15:09:17.934Z,11.14
2023-03-26T15:10:25.917Z,11.01
2023-03-26T15:11:53.566Z,10.95
2023-03-26T15:13:34.048Z,10.82
2023-03-26T15:14:56.445Z,10.74
2023-03-26T15:16:13.437Z,10.62
2023-03-26T15:17:41.660Z,10.50
2023-03-26T15:18:57.292Z,10.39
2023-03-26T15:20:37.680Z,10.31
2023-03-26T15:21:57.201Z,10.24
2023-03-26T15:23:33.713Z,10.17
2023-03-26T15:24:55.901Z,10.06
2023-03-26T15:26:20.604Z,10.00
2023-03-26T15:27:37.930Z,9.96
2023-03-26T15:29:09.772Z,9.92
2023-03-26T15:30:42.668Z,9.85
2023-03-26T15:31:51.410Z,9.79
2023-03-26T15:33:05.472Z,9.74
2023-03-26T15:34:33.787Z,9.68
2023-03-26T15:36:11.345Z,9.60
2023-03-26T15:37:34.212Z,9.51
2023-03-26T15:39:11.888Z,9.43
2023-03-26T15:40:17.650Z,9.34
2023-03-26T15:41:34.732Z,9.29
2023-03-26T15:42:46.967Z,9.25
2023-03-26T15:44:23.618Z,9.22
2023-03-26T15:45:30.078Z,9.20
2023-03-26T15:46:38.790Z,9.20
2023-03-26T15:47:57.371Z,9.18
2023-03-26T15:49:16.572Z,9.17
2023-03-26T15:51:04.694Z,9.16
2023-03-26T15:52:21.242Z,9.15
2023-03-26T15:53:29.352Z,9.13
2023-03-26T15:55:00.014Z,9.09
2023-03-26T15:56:08.957Z,9.02
2023-03-26T15:57:36.908Z,8.94
2023-03-26T15:58:50.111Z,8.85
2023-03-26T16:00:15.536Z,8.78
2023-03-26T16:01:51.645Z,8.74
2023-03-26T16:03:10.157Z,8.68
2023-03-26T16:04:16.088Z,8.62
2023-03-26T16:05:21.878Z,8.56
2023-03-26T16:06:56.264Z,8.48
2023-03-26T16:08:14.931Z,8.39
2023-03-26T16:09:33.094Z,8.28
2023-03-26T16:10:51.534Z,8.18
2023-03-26T16:11:59.714Z,8.11
2023-03-26T16:13:36.757Z,8.05
2023-03-26T16:14:46.860Z,7.98
2023-03-26T16:15:56.348Z,7.93
2023-03-26T16:17:00.077Z,7.88
2023-03-26T16:18:06.252Z,7.83
2023-03-26T16:19:24.193Z,7.79
2023-03-26T16:20:34.457Z,7.75
2023-03-26T16:21:53.885Z,7.70
2023-03-26T16:23:01.646Z,7.66
2023-03-26T16:24:08.158Z,7.63
2023-03-26T16:25:27.775Z,7.58
2023-03-26T16:26:31.732Z,7.51
2023-03-26T16:27:35.445Z,7.42
2023-03-26T16:28:44.553Z,7.36
2023-03-26T16:30:09.705Z,7.31
2023-03-26T16:31:37.301Z,7.24
2023-03-26T16:32:48.252Z,7.18
2023-03-26T16:34:18.638Z,7.13
2023-03-26T16:35:46.562Z,7.08
2023-03-26T16:36:51.671Z,7.01
2023-03-26T16:38:16.112Z,6.97
2023-03-26T16:39:38.981Z,6.91
2023-03-26T16:41:02.347Z,6.85
2023-03-26T16:42:38.655Z,6.81
2023-03-26T16:43:55.353Z,6.76
2023-03-26T16:45:37.166Z,6.73
2023-03-26T16:46:55.447Z,6.69
2023-03-26T16:48:07.336Z,6.65
2023-03-26T16:49:22.434Z,6.63
2023-03-26T16:50:50.119Z,6.61
2023-03-26T16:52:03.113Z,6.58
2023-03-26T16:53:51.306Z,6.57